Time;durP1;ratioP1;P1;durP2;ratioP2;P2;SDS_P1;SDS_P2;PMS_P1;PMS_P2;Temp;Humidity;BMP_temperature;BMP_pressure;BME280_temperature;BME280_humidity;BME280_pressure;Samples;Min_cycle;Max_cycle;Signal;HPM_P1;HPM_P2
2022/11/20 00:00:41;;;;;;;;;;;23.60;99.90;;;;;;4975153;28;19925;-50
2022/11/20 00:03:07;;;;;;;;;;;23.60;99.90;;;;;;4975366;28;19913;-50
2022/11/20 00:05:33;;;;;;;;;;;23.60;99.90;;;;;;4975083;28;19910;-50
2022/11/20 00:07:59;;;;;;;;;;;23.60;99.90;;;;;;4973897;28;19913;-51
2022/11/20 00:10:24;;;;;;;;;;;23.60;99.90;;;;;;4975227;28;19906;-50
2022/11/20 00:12:50;;;;;;;;;;;23.60;99.90;;;;;;4975030;28;19941;-50
2022/11/20 00:15:15;;;;;;;;;;;23.50;99.90;;;;;;4975183;28;20252;-51
2022/11/20 00:17:41;;;;;;;;;;;23.50;99.90;;;;;;4975312;28;19910;-49
2022/11/20 00:20:07;;;;;;;;;;;23.50;99.90;;;;;;4973662;28;19972;-49
2022/11/20 00:22:32;;;;;;;;;;;23.50;99.90;;;;;;4975037;28;19906;-50
2022/11/20 00:24:58;;;;;;;;;;;23.50;99.90;;;;;;4974881;28;19949;-50
2022/11/20 00:27:23;;;;;;;;;;;23.50;99.90;;;;;;4973595;28;20342;-50
2022/11/20 00:29:49;;;;;;;;;;;23.40;99.90;;;;;;4975000;28;19913;-51
2022/11/20 00:32:15;;;;;;;;;;;23.50;99.90;;;;;;4974958;28;20417;-50
2022/11/20 00:34:40;;;;;;;;;;;23.50;99.90;;;;;;4957584;28;20271;-50
2022/11/20 00:37:06;;;;;;;;;;;23.40;99.90;;;;;;4974832;28;19949;-50
2022/11/20 00:39:31;;;;;;;;;;;23.40;99.90;;;;;;4974748;28;20290;-50
2022/11/20 00:41:57;;;;;;;;;;;23.40;99.90;;;;;;4974762;28;19913;-50
2022/11/20 00:44:23;;;;;;;;;;;23.40;99.90;;;;;;4974754;28;19992;-50
2022/11/20 00:46:48;;;;;;;;;;;23.40;99.90;;;;;;4974761;28;19949;-50
2022/11/20 00:49:14;;;;;;;;;;;23.40;99.90;;;;;;4974538;28;19912;-50
2022/11/20 00:51:39;;;;;;;;;;;23.40;99.90;;;;;;4974589;28;19906;-49
2022/11/20 00:54:05;;;;;;;;;;;23.40;99.90;;;;;;4974735;28;20346;-49
2022/11/20 00:56:30;;;;;;;;;;;23.30;99.90;;;;;;4974611;28;19976;-49
2022/11/20 01:01:30;;;;;;;;;;;23.30;99.90;;;;;;4973309;28;19922;-47
2022/11/20 01:03:57;;;;;;;;;;;23.30;99.90;;;;;;4974522;28;19960;-47
2022/11/20 01:06:27;;;;;;;;;;;23.30;99.90;;;;;;4974493;28;19906;-47
2022/11/20 01:08:53;;;;;;;;;;;23.20;99.90;;;;;;4974580;28;19910;-48
2022/11/20 01:11:21;;;;;;;;;;;23.20;99.90;;;;;;4974540;28;19953;-47
2022/11/20 01:13:47;;;;;;;;;;;23.20;99.90;;;;;;4974374;28;19906;-47
2022/11/20 01:16:13;;;;;;;;;;;23.20;99.90;;;;;;4974628;28;19906;-48
2022/11/20 01:18:40;;;;;;;;;;;23.20;99.90;;;;;;4974310;28;19914;-48
2022/11/20 01:21:07;;;;;;;;;;;23.20;99.90;;;;;;4974457;28;20012;-47
2022/11/20 01:23:34;;;;;;;;;;;23.20;99.90;;;;;;4974466;28;19906;-48
2022/11/20 01:26:01;;;;;;;;;;;23.20;99.90;;;;;;4973013;28;19907;-47
2022/11/20 01:28:26;;;;;;;;;;;23.20;99.90;;;;;;4974566;28;19912;-47
2022/11/20 01:30:52;;;;;;;;;;;23.20;99.90;;;;;;4977993;28;19906;-48
2022/11/20 01:33:18;;;;;;;;;;;23.20;99.90;;;;;;4976786;28;20346;-47
2022/11/20 01:35:43;;;;;;;;;;;23.10;99.90;;;;;;4978193;28;19913;-49
2022/11/20 01:38:09;;;;;;;;;;;23.20;99.90;;;;;;4977979;28;19929;-48
2022/11/20 01:40:34;;;;;;;;;;;23.10;99.90;;;;;;4960581;28;19922;-48
2022/11/20 01:43:20;;;;;;;;;;;23.10;99.90;;;;;;4978019;28;19906;-48
2022/11/20 01:46:03;;;;;;;;;;;23.10;99.90;;;;;;4977388;28;20362;-48
2022/11/20 01:48:36;;;;;;;;;;;23.10;99.90;;;;;;4960549;28;19909;-48
2022/11/20 01:51:02;;;;;;;;;;;23.10;99.90;;;;;;4977719;28;19993;-48
2022/11/20 01:53:29;;;;;;;;;;;23.10;99.90;;;;;;4977676;28;19937;-48
2022/11/20 01:55:56;;;;;;;;;;;23.10;99.90;;;;;;4977646;28;19906;-48
2022/11/20 01:58:25;;;;;;;;;;;23.10;99.90;;;;;;4977652;28;19960;-48
2022/11/20 02:00:51;;;;;;;;;;;23.10;99.90;;;;;;5003234;23;19926;-44
2022/11/20 02:03:18;;;;;;;;;;;23.10;99.90;;;;;;4996438;28;19920;-44
2022/11/20 02:05:59;;;;;;;;;;;23.00;99.90;;;;;;4997025;28;19914;-44
2022/11/20 02:08:24;;;;;;;;;;;23.00;99.90;;;;;;4983378;28;20431;-44
2022/11/20 02:10:50;;;;;;;;;;;23.00;99.90;;;;;;4996910;28;19998;-44
2022/11/20 02:16:01;;;;;;;;;;;23.00;99.90;;;;;;4997081;28;19917;-44
2022/11/20 02:18:27;;;;;;;;;;;23.00;99.90;;;;;;4996728;28;19902;-44
2022/11/20 02:21:12;;;;;;;;;;;23.00;99.90;;;;;;4996633;28;19945;-44
2022/11/20 02:23:40;;;;;;;;;;;23.00;99.90;;;;;;4995767;28;19913;-44
2022/11/20 02:26:08;;;;;;;;;;;23.00;99.90;;;;;;4996418;28;20346;-44
2022/11/20 02:28:34;;;;;;;;;;;23.00;99.90;;;;;;4962817;28;19933;-43
2022/11/20 02:31:00;;;;;;;;;;;23.00;99.90;;;;;;4996372;28;19909;-43
2022/11/20 02:33:26;;;;;;;;;;;22.90;99.90;;;;;;4996453;28;20338;-43
2022/11/20 02:35:51;;;;;;;;;;;22.90;99.90;;;;;;4996360;28;19952;-44
2022/11/20 02:38:17;;;;;;;;;;;22.90;99.90;;;;;;4996291;28;20029;-44
2022/11/20 02:40:43;;;;;;;;;;;22.90;99.90;;;;;;4995201;28;19914;-44
2022/11/20 02:43:09;;;;;;;;;;;22.90;99.90;;;;;;4996121;28;19937;-43
2022/11/20 02:45:35;;;;;;;;;;;22.90;99.90;;;;;;4996318;28;20015;-44
2022/11/20 02:48:00;;;;;;;;;;;22.90;99.90;;;;;;4996486;28;19906;-45
2022/11/20 02:50:26;;;;;;;;;;;22.80;99.90;;;;;;4996132;28;19905;-44
2022/11/20 02:52:51;;;;;;;;;;;22.80;99.90;;;;;;4996186;28;19912;-43
2022/11/20 02:55:17;;;;;;;;;;;22.80;99.90;;;;;;4996102;28;20009;-44
2022/11/20 02:57:42;;;;;;;;;;;22.80;99.90;;;;;;4995891;28;20377;-43
2022/11/20 03:00:08;;;;;;;;;;;22.80;99.90;;;;;;4996218;28;19918;-45
2022/11/20 03:02:34;;;;;;;;;;;22.80;99.90;;;;;;4994980;28;19914;-47
2022/11/20 03:05:00;;;;;;;;;;;22.80;99.90;;;;;;4995661;28;20040;-43
2022/11/20 03:07:26;;;;;;;;;;;22.70;99.90;;;;;;4978410;28;19960;-44
2022/11/20 03:09:51;;;;;;;;;;;22.80;99.90;;;;;;4995333;28;19906;-44
2022/11/20 03:12:17;;;;;;;;;;;22.70;99.90;;;;;;4995848;28;19914;-44
2022/11/20 03:14:42;;;;;;;;;;;22.70;99.90;;;;;;4995698;28;19906;-44
2022/11/20 03:17:08;;;;;;;;;;;22.70;99.90;;;;;;4995639;28;19912;-44
2022/11/20 03:19:34;;;;;;;;;;;22.70;99.90;;;;;;4994249;28;19944;-44
2022/11/20 03:22:00;;;;;;;;;;;22.70;99.90;;;;;;4994928;28;19909;-44
2022/11/20 03:24:25;;;;;;;;;;;22.70;99.90;;;;;;4995300;28;19905;-44
2022/11/20 03:26:51;;;;;;;;;;;22.70;99.90;;;;;;4994798;28;19963;-44
2022/11/20 03:29:16;;;;;;;;;;;22.70;99.90;;;;;;4994884;28;19909;-44
2022/11/20 03:31:42;;;;;;;;;;;22.70;99.90;;;;;;4994941;28;20365;-44
2022/11/20 03:34:09;;;;;;;;;;;22.70;99.90;;;;;;4994738;28;19905;-44
2022/11/20 03:36:34;;;;;;;;;;;22.70;99.90;;;;;;4994801;28;20338;-44
2022/11/20 03:39:00;;;;;;;;;;;22.70;99.90;;;;;;4992667;28;19910;-44
2022/11/20 03:41:27;;;;;;;;;;;22.70;99.90;;;;;;4992978;28;19909;-44
2022/11/20 03:43:57;;;;;;;;;;;22.60;99.90;;;;;;4993121;28;20385;-44
2022/11/20 03:46:23;;;;;;;;;;;22.70;99.90;;;;;;4993008;28;19952;-45
2022/11/20 03:48:49;;;;;;;;;;;22.70;99.90;;;;;;4992754;28;20339;-44
2022/11/20 03:51:16;;;;;;;;;;;22.60;99.90;;;;;;4992993;28;19906;-44
2022/11/20 03:53:42;;;;;;;;;;;22.60;99.90;;;;;;4992514;28;20102;-44
2022/11/20 03:56:08;;;;;;;;;;;22.60;99.90;;;;;;4992725;28;19913;-43
2022/11/20 03:58:36;;;;;;;;;;;22.60;99.90;;;;;;4992802;28;19996;-43
2022/11/20 04:01:21;;;;;;;;;;;22.60;99.90;;;;;;5004796;23;20377;-49
2022/11/20 04:03:47;;;;;;;;;;;22.60;99.90;;;;;;4992683;28;19906;-49
2022/11/20 04:06:13;;;;;;;;;;;22.60;99.90;;;;;;4993590;28;19905;-49
2022/11/20 04:08:39;;;;;;;;;;;22.60;99.90;;;;;;4977309;28;19906;-50
2022/11/20 04:11:09;;;;;;;;;;;22.60;99.90;;;;;;4994656;28;20305;-50
2022/11/20 04:13:34;;;;;;;;;;;22.60;99.90;;;;;;4994655;28;19912;-49
2022/11/20 04:16:00;;;;;;;;;;;22.50;99.90;;;;;;4994694;28;19905;-49
2022/11/20 04:18:25;;;;;;;;;;;22.60;99.90;;;;;;4994522;28;19906;-49
2022/11/20 04:20:51;;;;;;;;;;;22.50;99.90;;;;;;4994298;28;20382;-49
2022/11/20 04:23:16;;;;;;;;;;;22.60;99.90;;;;;;4994376;28;19993;-50
2022/11/20 04:25:42;;;;;;;;;;;22.50;99.90;;;;;;4994467;28;19944;-50
2022/11/20 04:28:08;;;;;;;;;;;22.50;99.90;;;;;;4994281;28;19909;-49
2022/11/20 04:30:33;;;;;;;;;;;22.50;99.90;;;;;;4994302;28;19932;-49
2022/11/20 04:32:59;;;;;;;;;;;22.50;99.90;;;;;;4994207;28;19906;-50
2022/11/20 04:35:24;;;;;;;;;;;22.50;99.90;;;;;;4994214;28;19914;-49
2022/11/20 04:37:53;;;;;;;;;;;22.50;99.90;;;;;;4994403;28;19996;-50
2022/11/20 04:40:18;;;;;;;;;;;22.50;99.90;;;;;;4994156;28;19921;-50
2022/11/20 04:42:44;;;;;;;;;;;22.50;99.90;;;;;;4994300;28;19906;-50
2022/11/20 04:45:10;;;;;;;;;;;22.40;99.90;;;;;;4994120;28;19905;-50
2022/11/20 04:47:35;;;;;;;;;;;22.50;99.90;;;;;;4976772;28;20333;-50
2022/11/20 04:50:01;;;;;;;;;;;22.40;99.90;;;;;;4994050;28;19912;-49
2022/11/20 04:52:27;;;;;;;;;;;22.40;99.90;;;;;;4993994;28;19960;-50
2022/11/20 04:54:53;;;;;;;;;;;22.40;99.90;;;;;;4994196;28;19905;-50
2022/11/20 04:57:18;;;;;;;;;;;22.40;99.90;;;;;;4993974;28;19910;-50
2022/11/20 04:59:44;;;;;;;;;;;22.40;99.90;;;;;;4994265;28;19910;-49
2022/11/20 05:02:10;;;;;;;;;;;22.40;99.90;;;;;;4994461;28;19906;-50
2022/11/20 05:04:36;;;;;;;;;;;22.40;99.90;;;;;;4995656;28;19905;-49
2022/11/20 05:07:02;;;;;;;;;;;22.40;99.90;;;;;;4998002;28;19913;-50
2022/11/20 05:09:27;;;;;;;;;;;22.40;99.90;;;;;;4997973;28;19937;-49
2022/11/20 05:11:53;;;;;;;;;;;22.40;99.90;;;;;;4998067;28;19956;-49
2022/11/20 05:14:18;;;;;;;;;;;22.30;99.90;;;;;;4997862;28;20316;-50
2022/11/20 05:16:44;;;;;;;;;;;22.30;99.90;;;;;;4997937;28;19905;-49
2022/11/20 05:19:10;;;;;;;;;;;22.30;99.90;;;;;;4997634;28;20247;-50
2022/11/20 05:21:35;;;;;;;;;;;22.30;99.90;;;;;;4997799;28;19909;-49
2022/11/20 05:24:01;;;;;;;;;;;22.30;99.90;;;;;;4997726;28;20378;-49
2022/11/20 05:26:26;;;;;;;;;;;22.30;99.90;;;;;;4997772;28;20000;-49
2022/11/20 05:28:52;;;;;;;;;;;22.30;99.90;;;;;;4997674;28;19912;-49
2022/11/20 05:31:19;;;;;;;;;;;22.30;99.90;;;;;;4997487;28;20290;-50
2022/11/20 05:33:45;;;;;;;;;;;22.20;99.90;;;;;;4997539;28;19949;-50
2022/11/20 05:36:11;;;;;;;;;;;22.20;99.90;;;;;;4997869;28;20004;-49
2022/11/20 05:38:37;;;;;;;;;;;22.20;99.90;;;;;;4997231;28;19968;-50
2022/11/20 05:41:21;;;;;;;;;;;22.20;99.90;;;;;;4997288;28;19937;-50
2022/11/20 05:43:47;;;;;;;;;;;22.20;99.90;;;;;;4997316;28;19906;-50
2022/11/20 05:46:14;;;;;;;;;;;22.20;99.90;;;;;;4997338;28;20417;-50
2022/11/20 05:48:40;;;;;;;;;;;22.20;99.90;;;;;;4997325;28;19912;-50
2022/11/20 05:51:07;;;;;;;;;;;22.20;99.90;;;;;;4997220;28;19909;-50
2022/11/20 05:53:33;;;;;;;;;;;22.20;99.90;;;;;;4997217;28;19906;-50
2022/11/20 05:56:00;;;;;;;;;;;22.20;99.90;;;;;;4997102;28;19906;-50
2022/11/20 05:58:25;;;;;;;;;;;22.10;99.90;;;;;;4997225;28;19916;-50
2022/11/20 06:00:51;;;;;;;;;;;22.10;99.90;;;;;;4996689;28;19993;-49
2022/11/20 06:03:17;;;;;;;;;;;22.10;99.90;;;;;;4997096;28;19906;-50
2022/11/20 06:05:42;;;;;;;;;;;22.10;99.90;;;;;;4996979;28;19905;-50
2022/11/20 06:08:08;;;;;;;;;;;22.10;99.90;;;;;;4996835;28;19912;-50
2022/11/20 06:10:33;;;;;;;;;;;22.20;99.90;;;;;;4997041;28;20063;-49
2022/11/20 06:12:59;;;;;;;;;;;22.10;99.90;;;;;;4996795;28;19910;-49
2022/11/20 06:15:25;;;;;;;;;;;22.10;99.90;;;;;;4979027;28;19913;-50
2022/11/20 06:17:53;;;;;;;;;;;22.10;99.90;;;;;;4996685;28;19949;-50
2022/11/20 06:20:20;;;;;;;;;;;22.10;99.90;;;;;;4996594;28;20007;-50
2022/11/20 06:22:45;;;;;;;;;;;22.10;99.90;;;;;;4979155;28;19909;-50
2022/11/20 06:25:11;;;;;;;;;;;22.10;99.90;;;;;;4996549;28;19951;-49
2022/11/20 06:27:36;;;;;;;;;;;22.10;99.90;;;;;;4996470;28;19940;-49
2022/11/20 06:30:02;;;;;;;;;;;22.10;99.90;;;;;;4996602;28;19968;-49
2022/11/20 06:32:28;;;;;;;;;;;22.00;99.90;;;;;;4996552;28;19912;-50
2022/11/20 06:34:54;;;;;;;;;;;22.10;99.90;;;;;;4996395;28;19913;-49
2022/11/20 06:37:19;;;;;;;;;;;22.00;99.90;;;;;;4996337;28;19906;-49
2022/11/20 06:39:45;;;;;;;;;;;22.10;99.90;;;;;;4996181;28;19965;-50
2022/11/20 06:42:10;;;;;;;;;;;22.00;99.90;;;;;;4996394;28;20365;-50
2022/11/20 06:44:36;;;;;;;;;;;22.00;99.90;;;;;;4996181;28;19993;-51
2022/11/20 06:47:01;;;;;;;;;;;22.00;99.90;;;;;;4996248;28;19941;-51
2022/11/20 06:49:27;;;;;;;;;;;22.00;99.90;;;;;;4996274;28;19960;-50
2022/11/20 06:51:53;;;;;;;;;;;22.00;99.90;;;;;;4996171;28;20286;-49
2022/11/20 06:54:18;;;;;;;;;;;22.00;99.90;;;;;;4995998;28;19913;-50
2022/11/20 06:56:46;;;;;;;;;;;22.00;99.90;;;;;;4978752;28;19905;-50
2022/11/20 06:59:12;;;;;;;;;;;21.90;99.90;;;;;;4990836;28;19906;-50
2022/11/20 07:01:37;;;;;;;;;;;22.00;99.90;;;;;;4995755;28;19924;-50
2022/11/20 07:04:03;;;;;;;;;;;21.90;99.90;;;;;;4978495;28;19906;-50
2022/11/20 07:06:29;;;;;;;;;;;21.90;99.90;;;;;;4995756;28;20000;-50
2022/11/20 07:08:54;;;;;;;;;;;21.90;99.90;;;;;;4996016;28;19909;-50
2022/11/20 07:11:20;;;;;;;;;;;21.90;99.90;;;;;;4995689;28;19906;-50
2022/11/20 07:13:46;;;;;;;;;;;21.90;99.90;;;;;;4995654;28;19912;-51
2022/11/20 07:16:11;;;;;;;;;;;21.90;99.90;;;;;;4995787;28;19912;-50
2022/11/20 07:18:38;;;;;;;;;;;21.90;99.90;;;;;;4995621;28;20254;-53
2022/11/20 07:21:05;;;;;;;;;;;21.90;99.90;;;;;;4978170;28;19913;-51
2022/11/20 07:23:30;;;;;;;;;;;21.90;99.90;;;;;;4995509;28;19936;-51
2022/11/20 07:25:56;;;;;;;;;;;21.90;99.90;;;;;;4995509;28;19945;-50
2022/11/20 07:28:22;;;;;;;;;;;21.90;99.90;;;;;;4994853;28;20380;-50
2022/11/20 07:30:51;;;;;;;;;;;21.90;99.90;;;;;;4995527;28;19912;-50
2022/11/20 07:33:16;;;;;;;;;;;21.90;99.90;;;;;;4995436;28;19909;-50
2022/11/20 07:35:42;;;;;;;;;;;21.90;99.90;;;;;;4995200;28;19905;-50
2022/11/20 07:38:08;;;;;;;;;;;22.00;99.90;;;;;;4977748;28;19932;-50
2022/11/20 07:40:33;;;;;;;;;;;22.00;99.90;;;;;;4995045;28;20012;-51
2022/11/20 07:42:59;;;;;;;;;;;22.00;99.90;;;;;;4993757;28;19909;-50
2022/11/20 07:45:24;;;;;;;;;;;22.00;99.90;;;;;;4995123;28;20004;-51
2022/11/20 07:47:50;;;;;;;;;;;22.00;99.90;;;;;;4995160;28;19913;-51
2022/11/20 07:50:16;;;;;;;;;;;22.00;99.90;;;;;;4994803;28;20287;-51
2022/11/20 07:52:42;;;;;;;;;;;22.00;99.90;;;;;;4977517;28;19913;-50
2022/11/20 07:55:08;;;;;;;;;;;22.00;99.90;;;;;;4994938;28;19912;-50
2022/11/20 07:57:33;;;;;;;;;;;22.00;99.90;;;;;;4994786;28;20345;-49
2022/11/20 07:59:59;;;;;;;;;;;22.00;99.90;;;;;;4994779;28;19965;-50
2022/11/20 08:02:25;;;;;;;;;;;22.00;99.90;;;;;;4994708;28;19910;-50
2022/11/20 08:04:50;;;;;;;;;;;22.00;99.90;;;;;;4994642;28;19910;-50
2022/11/20 08:07:16;;;;;;;;;;;22.00;99.90;;;;;;4994698;28;19953;-50
2022/11/20 08:09:41;;;;;;;;;;;22.00;99.90;;;;;;4994673;28;20329;-50
2022/11/20 08:15:03;;;;;;;;;;;22.00;99.90;;;;;;4994860;28;19964;-50
2022/11/20 08:17:29;;;;;;;;;;;22.00;99.90;;;;;;4994385;28;19906;-50
2022/11/20 08:19:55;;;;;;;;;;;22.00;99.90;;;;;;4976926;28;19948;-50
2022/11/20 08:22:20;;;;;;;;;;;22.00;99.90;;;;;;4994353;28;19906;-50
2022/11/20 08:24:46;;;;;;;;;;;22.10;99.90;;;;;;4976783;28;19905;-50
2022/11/20 08:27:11;;;;;;;;;;;22.10;99.90;;;;;;4994365;28;19906;-50
2022/11/20 08:29:37;;;;;;;;;;;22.10;99.90;;;;;;4994416;28;20334;-49
2022/11/20 08:32:03;;;;;;;;;;;22.10;99.90;;;;;;4994465;28;20378;-49
2022/11/20 08:34:28;;;;;;;;;;;22.20;99.90;;;;;;4993990;28;19913;-50
2022/11/20 08:36:54;;;;;;;;;;;22.30;99.90;;;;;;4994353;28;19952;-50
2022/11/20 08:39:19;;;;;;;;;;;22.30;99.90;;;;;;4993351;28;19906;-50
2022/11/20 08:41:45;;;;;;;;;;;22.40;99.90;;;;;;4994171;28;20366;-50
2022/11/20 08:44:10;;;;;;;;;;;22.40;99.90;;;;;;4994339;28;19913;-50
2022/11/20 08:46:38;;;;;;;;;;;22.50;99.90;;;;;;4994136;28;19906;-50
2022/11/20 08:49:13;;;;;;;;;;;22.50;99.90;;;;;;4994287;28;20322;-50
2022/11/20 08:51:39;;;;;;;;;;;22.60;99.90;;;;;;4993922;28;20000;-50
2022/11/20 08:54:05;;;;;;;;;;;22.60;99.90;;;;;;4993978;28;19949;-50
2022/11/20 08:56:31;;;;;;;;;;;22.70;99.90;;;;;;4994015;28;19917;-51
2022/11/20 08:58:59;;;;;;;;;;;22.80;99.90;;;;;;4993988;28;19906;-49
2022/11/20 09:01:25;;;;;;;;;;;22.80;99.90;;;;;;4976117;28;19956;-50
2022/11/20 09:03:50;;;;;;;;;;;22.90;99.90;;;;;;4993911;28;20346;-50
2022/11/20 09:06:16;;;;;;;;;;;22.90;99.90;;;;;;4993871;28;19909;-50
2022/11/20 09:08:42;;;;;;;;;;;23.00;99.90;;;;;;4992564;28;19976;-50
2022/11/20 09:11:07;;;;;;;;;;;23.00;99.90;;;;;;4993921;28;20345;-50
2022/11/20 09:13:34;;;;;;;;;;;23.00;99.90;;;;;;4993650;28;19906;-50
2022/11/20 09:16:01;;;;;;;;;;;23.10;99.90;;;;;;4993732;28;19906;-50
2022/11/20 09:18:27;;;;;;;;;;;23.10;99.90;;;;;;4993774;28;19905;-51
2022/11/20 09:20:56;;;;;;;;;;;23.20;99.90;;;;;;4993517;28;20397;-50
2022/11/20 09:23:21;;;;;;;;;;;23.20;99.90;;;;;;4993848;28;19913;-51
2022/11/20 09:25:47;;;;;;;;;;;23.30;99.90;;;;;;4993575;28;19905;-50
2022/11/20 09:28:13;;;;;;;;;;;23.30;99.90;;;;;;4993596;28;20361;-50
2022/11/20 09:30:38;;;;;;;;;;;23.30;99.90;;;;;;4993744;28;19956;-50
2022/11/20 09:33:05;;;;;;;;;;;23.40;99.90;;;;;;4993508;28;19906;-50
2022/11/20 09:35:30;;;;;;;;;;;23.40;99.90;;;;;;4993617;28;19906;-50
2022/11/20 09:37:56;;;;;;;;;;;23.40;99.90;;;;;;4992242;28;19982;-50
2022/11/20 09:40:23;;;;;;;;;;;23.50;99.90;;;;;;4993647;28;19968;-50
2022/11/20 09:42:57;;;;;;;;;;;23.60;99.90;;;;;;4993766;28;19906;-50
2022/11/20 09:45:28;;;;;;;;;;;23.60;99.90;;;;;;4975970;28;19906;-49
2022/11/20 09:48:12;;;;;;;;;;;23.60;99.90;;;;;;4976174;28;19910;-50
2022/11/20 09:50:43;;;;;;;;;;;23.60;99.90;;;;;;4995006;28;19905;-50
2022/11/20 09:53:16;;;;;;;;;;;23.70;99.90;;;;;;4997135;28;19913;-50
2022/11/20 09:55:42;;;;;;;;;;;23.70;99.90;;;;;;4996999;28;20392;-50
2022/11/20 09:58:16;;;;;;;;;;;23.80;99.90;;;;;;4996912;28;20377;-49
2022/11/20 10:00:42;;;;;;;;;;;23.80;99.90;;;;;;4995634;28;19918;-50
2022/11/20 10:03:16;;;;;;;;;;;23.90;99.90;;;;;;4996729;28;19992;-49
2022/11/20 10:05:47;;;;;;;;;;;23.90;99.90;;;;;;4996802;28;20385;-49
2022/11/20 10:08:29;;;;;;;;;;;24.00;99.90;;;;;;4996897;28;19906;-50
2022/11/20 10:11:00;;;;;;;;;;;24.00;99.90;;;;;;4997110;28;19945;-49
2022/11/20 10:13:26;;;;;;;;;;;24.10;99.90;;;;;;4996789;28;19933;-50
2022/11/20 10:15:58;;;;;;;;;;;24.10;99.90;;;;;;4996793;28;19956;-50
2022/11/20 10:18:46;;;;;;;;;;;24.20;99.90;;;;;;4996722;28;19906;-50
2022/11/20 10:21:21;;;;;;;;;;;24.20;99.90;;;;;;4968630;28;19913;-51
2022/11/20 10:23:52;;;;;;;;;;;24.30;99.90;;;;;;4996679;28;20021;-50
2022/11/20 10:26:44;;;;;;;;;;;24.30;99.90;;;;;;4978957;28;19906;-50
2022/11/20 10:29:15;;;;;;;;;;;24.40;99.90;;;;;;4966693;28;20247;-50
2022/11/20 10:32:01;;;;;;;;;;;24.40;99.90;;;;;;4996237;28;20258;-50
2022/11/20 10:34:31;;;;;;;;;;;24.40;99.90;;;;;;4995829;28;19905;-50
2022/11/20 10:37:17;;;;;;;;;;;24.50;99.90;;;;;;4996198;28;19969;-50
2022/11/20 10:39:54;;;;;;;;;;;24.50;99.90;;;;;;4978469;28;19909;-50
2022/11/20 10:42:30;;;;;;;;;;;24.60;99.90;;;;;;4978996;28;19932;-50
2022/11/20 10:45:02;;;;;;;;;;;24.60;99.90;;;;;;4996573;28;19910;-50
2022/11/20 10:47:29;;;;;;;;;;;24.60;99.90;;;;;;4996157;28;19906;-50
2022/11/20 10:49:57;;;;;;;;;;;24.60;99.90;;;;;;4996234;28;20385;-50
2022/11/20 10:52:25;;;;;;;;;;;24.70;99.90;;;;;;4994902;28;19908;-50
2022/11/20 10:54:57;;;;;;;;;;;24.70;99.90;;;;;;4995924;28;19967;-50
2022/11/20 10:57:41;;;;;;;;;;;24.70;99.90;;;;;;4996081;28;19940;-50
2022/11/20 11:00:09;;;;;;;;;;;24.80;99.90;;;;;;4983807;28;19917;-49
2022/11/20 11:02:48;;;;;;;;;;;24.80;99.90;;;;;;4994993;28;19906;-50
2022/11/20 11:05:13;;;;;;;;;;;24.80;99.90;;;;;;4995620;28;20000;-49
2022/11/20 11:07:39;;;;;;;;;;;24.80;99.90;;;;;;4995807;28;19948;-50
2022/11/20 11:10:19;;;;;;;;;;;24.90;99.90;;;;;;4978056;28;19905;-49
2022/11/20 11:12:45;;;;;;;;;;;24.90;99.90;;;;;;4995651;28;19913;-49
2022/11/20 11:15:14;;;;;;;;;;;24.90;99.90;;;;;;4978067;28;19972;-49
2022/11/20 11:17:45;;;;;;;;;;;24.90;99.90;;;;;;4995692;28;19906;-49
2022/11/20 11:20:15;;;;;;;;;;;24.90;99.90;;;;;;4995435;28;19917;-49
2022/11/20 11:22:46;;;;;;;;;;;25.00;99.90;;;;;;4995311;28;19905;-50
2022/11/20 11:25:24;;;;;;;;;;;25.00;99.90;;;;;;4977974;28;20251;-50
2022/11/20 11:27:50;;;;;;;;;;;24.90;99.90;;;;;;4995220;28;19913;-50
2022/11/20 11:30:16;;;;;;;;;;;25.00;99.90;;;;;;4995432;28;19906;-50
2022/11/20 11:32:42;;;;;;;;;;;25.00;99.90;;;;;;4995227;28;20000;-49
2022/11/20 11:35:21;;;;;;;;;;;25.00;99.90;;;;;;4995133;28;19941;-50
2022/11/20 11:37:48;;;;;;;;;;;25.00;99.90;;;;;;4995071;28;20286;-49
2022/11/20 11:40:13;;;;;;;;;;;25.00;99.90;;;;;;4994876;28;20366;-50
2022/11/20 11:42:59;;;;;;;;;;;25.00;99.90;;;;;;4995008;28;19913;-50
2022/11/20 11:45:25;;;;;;;;;;;25.00;99.90;;;;;;4995143;28;20333;-50
2022/11/20 11:47:52;;;;;;;;;;;25.00;99.90;;;;;;4977478;28;19905;-49
2022/11/20 11:50:21;;;;;;;;;;;25.00;99.90;;;;;;4994895;28;19906;-50
2022/11/20 11:52:47;;;;;;;;;;;25.00;99.90;;;;;;4994889;28;19912;-50
2022/11/20 11:55:16;;;;;;;;;;;25.00;99.90;;;;;;4994950;28;19906;-50
2022/11/20 11:57:54;;;;;;;;;;;25.00;99.90;;;;;;4994694;28;19944;-49
2022/11/20 12:00:20;;;;;;;;;;;25.00;99.90;;;;;;4994566;28;19925;-50
2022/11/20 12:02:48;;;;;;;;;;;25.00;99.90;;;;;;4994541;28;19906;-49
2022/11/20 12:05:20;;;;;;;;;;;25.00;99.90;;;;;;4994639;28;19909;-50
2022/11/20 12:08:05;;;;;;;;;;;25.00;99.90;;;;;;4994607;28;19906;-49
2022/11/20 12:10:34;;;;;;;;;;;25.00;99.90;;;;;;4970774;28;19912;-50
2022/11/20 12:13:20;;;;;;;;;;;25.00;99.90;;;;;;4994220;28;19906;-50
2022/11/20 12:15:47;;;;;;;;;;;25.00;99.90;;;;;;4994009;28;19958;-50
2022/11/20 12:18:17;;;;;;;;;;;25.10;99.90;;;;;;4994431;28;19928;-50
2022/11/20 12:20:48;;;;;;;;;;;25.10;99.90;;;;;;4994302;28;20358;-50
2022/11/20 12:23:19;;;;;;;;;;;25.10;99.90;;;;;;4976882;28;20282;-49
2022/11/20 12:25:47;;;;;;;;;;;25.10;99.90;;;;;;4994174;28;20389;-49
2022/11/20 12:28:21;;;;;;;;;;;25.10;99.90;;;;;;4992963;28;19905;-49
2022/11/20 12:30:52;;;;;;;;;;;25.10;99.90;;;;;;4960809;28;19905;-49
2022/11/20 12:33:41;;;;;;;;;;;25.10;99.90;;;;;;4994246;28;19906;-50
2022/11/20 12:36:33;;;;;;;;;;;25.20;99.90;;;;;;4993678;28;19928;-50
2022/11/20 12:39:17;;;;;;;;;;;25.20;99.90;;;;;;4964641;28;19913;-49
2022/11/20 12:47:28;;;;;;;;;;;25.30;99.90;;;;;;4993734;28;20321;-50
2022/11/20 12:49:59;;;;;;;;;;;25.40;99.90;;;;;;4960312;28;19945;-50
2022/11/20 12:52:47;;;;;;;;;;;25.40;99.90;;;;;;4976392;28;19905;-49
2022/11/20 12:55:12;;;;;;;;;;;25.40;99.90;;;;;;4976595;28;19905;-49
2022/11/20 12:57:41;;;;;;;;;;;25.50;99.90;;;;;;4993409;28;19912;-50
2022/11/20 13:00:13;;;;;;;;;;;25.50;99.90;;;;;;4976217;28;19924;-49
2022/11/20 13:02:57;;;;;;;;;;;25.60;99.90;;;;;;4976534;28;19906;-50
2022/11/20 13:05:27;;;;;;;;;;;25.60;99.90;;;;;;4993782;28;19960;-49
2022/11/20 13:07:53;;;;;;;;;;;25.60;99.90;;;;;;4976245;28;19984;-50
2022/11/20 13:10:39;;;;;;;;;;;25.60;99.90;;;;;;4992899;28;19909;-51
2022/11/20 13:13:23;;;;;;;;;;;25.70;99.90;;;;;;4989086;28;19948;-49
2022/11/20 13:15:52;;;;;;;;;;;25.70;99.90;;;;;;4991144;28;19976;-50
2022/11/20 13:18:18;;;;;;;;;;;25.70;99.90;;;;;;4992501;28;19917;-49
2022/11/20 13:20:45;;;;;;;;;;;25.60;99.90;;;;;;4991150;28;20325;-49
2022/11/20 13:23:11;;;;;;;;;;;25.60;99.90;;;;;;4991061;28;19913;-50
2022/11/20 13:25:39;;;;;;;;;;;25.60;99.90;;;;;;4994085;28;19905;-49
2022/11/20 13:28:11;;;;;;;;;;;25.60;99.90;;;;;;4978062;28;19909;-48
2022/11/20 13:30:49;;;;;;;;;;;25.60;99.90;;;;;;4995474;28;20338;-49
2022/11/20 13:33:44;;;;;;;;;;;25.60;99.90;;;;;;4994830;28;19913;-49
2022/11/20 13:36:23;;;;;;;;;;;25.50;99.90;;;;;;4944236;28;20251;-49
2022/11/20 13:38:50;;;;;;;;;;;25.50;99.90;;;;;;4978587;28;19952;-49
2022/11/20 13:41:33;;;;;;;;;;;25.50;99.90;;;;;;4994952;28;19929;-50
2022/11/20 13:44:11;;;;;;;;;;;25.50;99.90;;;;;;4995514;28;20329;-50
2022/11/20 13:46:43;;;;;;;;;;;25.60;99.90;;;;;;4994050;28;20017;-48
2022/11/20 13:49:10;;;;;;;;;;;25.60;99.90;;;;;;4993433;28;19993;-50
2022/11/20 13:51:47;;;;;;;;;;;25.60;99.90;;;;;;4976558;28;19968;-50
2022/11/20 13:54:19;;;;;;;;;;;25.70;99.90;;;;;;4992698;28;19910;-50
2022/11/20 13:56:55;;;;;;;;;;;25.70;99.90;;;;;;4993590;28;20350;-49
2022/11/20 13:59:22;;;;;;;;;;;25.70;99.90;;;;;;4995303;28;20374;-50
2022/11/20 14:01:48;;;;;;;;;;;25.70;99.90;;;;;;4990121;28;20411;-49
2022/11/20 14:04:20;;;;;;;;;;;25.70;99.90;;;;;;4975412;28;19910;-50
2022/11/20 14:06:47;;;;;;;;;;;25.80;99.90;;;;;;4976151;28;20008;-50
2022/11/20 14:09:24;;;;;;;;;;;25.80;99.90;;;;;;4976224;28;19910;-50
2022/11/20 14:11:49;;;;;;;;;;;25.80;99.90;;;;;;4990603;28;19965;-49
2022/11/20 14:14:16;;;;;;;;;;;25.80;99.90;;;;;;4975776;28;20366;-50
2022/11/20 14:16:44;;;;;;;;;;;25.80;99.90;;;;;;4974998;28;19910;-50
2022/11/20 14:19:21;;;;;;;;;;;25.80;99.90;;;;;;4976178;28;19910;-50
2022/11/20 14:21:48;;;;;;;;;;;25.80;99.90;;;;;;4975865;28;19918;-49
2022/11/20 14:24:18;;;;;;;;;;;25.80;99.90;;;;;;4975437;28;19910;-49
2022/11/20 14:26:45;;;;;;;;;;;25.80;99.90;;;;;;4981070;28;20354;-49
2022/11/20 14:29:15;;;;;;;;;;;25.80;99.90;;;;;;4975477;28;19997;-50
2022/11/20 14:31:42;;;;;;;;;;;25.80;99.90;;;;;;4973522;28;19918;-50
2022/11/20 14:34:28;;;;;;;;;;;25.80;99.90;;;;;;4974966;28;19914;-50
2022/11/20 14:37:14;;;;;;;;;;;25.80;99.90;;;;;;4989630;28;19914;-49